sensor_id;sensor_type;location;lat;lon;timestamp;P1;durP1;ratioP1;P2;durP2;ratioP2
76761;SDS011;65705;51.032;13.790;2024-01-06T00:01:40;22.27;;;9.38;;
76761;SDS011;65705;51.032;13.790;2024-01-06T00:04:06;22.25;;;9.75;;
76761;SDS011;65705;51.032;13.790;2024-01-06T00:06:32;23.23;;;8.55;;
76761;SDS011;65705;51.032;13.790;2024-01-06T00:08:58;18.38;;;8.65;;
76761;SDS011;65705;51.032;13.790;2024-01-06T00:11:24;22.30;;;9.35;;
76761;SDS011;65705;51.032;13.790;2024-01-06T00:13:49;19.80;;;8.75;;
76761;SDS011;65705;51.032;13.790;2024-01-06T00:16:18;26.60;;;9.75;;
76761;SDS011;65705;51.032;13.790;2024-01-06T00:18:45;22.35;;;9.82;;
76761;SDS011;65705;51.032;13.790;2024-01-06T00:21:11;18.58;;;9.15;;
76761;SDS011;65705;51.032;13.790;2024-01-06T00:23:37;23.83;;;9.40;;
76761;SDS011;65705;51.032;13.790;2024-01-06T00:26:05;24.50;;;9.90;;
76761;SDS011;65705;51.032;13.790;2024-01-06T00:28:31;21.30;;;8.93;;
76761;SDS011;65705;51.032;13.790;2024-01-06T00:30:56;23.95;;;10.07;;
76761;SDS011;65705;51.032;13.790;2024-01-06T00:33:22;22.35;;;9.55;;
76761;SDS011;65705;51.032;13.790;2024-01-06T00:35:48;22.92;;;10.00;;
76761;SDS011;65705;51.032;13.790;2024-01-06T00:38:13;23.70;;;10.60;;
76761;SDS011;65705;51.032;13.790;2024-01-06T00:40:39;21.83;;;9.23;;
76761;SDS011;65705;51.032;13.790;2024-01-06T00:43:05;24.05;;;9.88;;
76761;SDS011;65705;51.032;13.790;2024-01-06T00:45:30;24.08;;;11.05;;
76761;SDS011;65705;51.032;13.790;2024-01-06T00:47:56;29.27;;;10.23;;
76761;SDS011;65705;51.032;13.790;2024-01-06T00:50:22;24.75;;;10.30;;
76761;SDS011;65705;51.032;13.790;2024-01-06T00:52:48;23.55;;;11.10;;
76761;SDS011;65705;51.032;13.790;2024-01-06T00:55:18;22.50;;;9.82;;
76761;SDS011;65705;51.032;13.790;2024-01-06T00:57:47;24.40;;;9.93;;
76761;SDS011;65705;51.032;13.790;2024-01-06T01:00:13;25.80;;;11.07;;
76761;SDS011;65705;51.032;13.790;2024-01-06T01:02:39;25.02;;;10.30;;
76761;SDS011;65705;51.032;13.790;2024-01-06T01:05:04;19.30;;;9.88;;
76761;SDS011;65705;51.032;13.790;2024-01-06T01:07:32;21.23;;;9.27;;
76761;SDS011;65705;51.032;13.790;2024-01-06T01:09:58;22.17;;;10.50;;
76761;SDS011;65705;51.032;13.790;2024-01-06T01:12:24;21.95;;;10.98;;
76761;SDS011;65705;51.032;13.790;2024-01-06T01:14:51;22.77;;;10.50;;
76761;SDS011;65705;51.032;13.790;2024-01-06T01:17:17;22.33;;;10.85;;
76761;SDS011;65705;51.032;13.790;2024-01-06T01:19:43;24.33;;;10.32;;
76761;SDS011;65705;51.032;13.790;2024-01-06T01:22:09;22.23;;;10.88;;
76761;SDS011;65705;51.032;13.790;2024-01-06T01:24:35;21.55;;;10.63;;
76761;SDS011;65705;51.032;13.790;2024-01-06T01:27:00;23.27;;;10.75;;
76761;SDS011;65705;51.032;13.790;2024-01-06T01:29:26;21.77;;;10.35;;
76761;SDS011;65705;51.032;13.790;2024-01-06T01:31:52;22.95;;;10.30;;
76761;SDS011;65705;51.032;13.790;2024-01-06T01:34:17;21.00;;;9.50;;
76761;SDS011;65705;51.032;13.790;2024-01-06T01:36:43;24.60;;;10.45;;
76761;SDS011;65705;51.032;13.790;2024-01-06T01:39:09;21.33;;;10.32;;
76761;SDS011;65705;51.032;13.790;2024-01-06T01:41:35;22.27;;;10.63;;
76761;SDS011;65705;51.032;13.790;2024-01-06T01:44:01;23.52;;;10.32;;
76761;SDS011;65705;51.032;13.790;2024-01-06T01:46:27;22.23;;;10.15;;
76761;SDS011;65705;51.032;13.790;2024-01-06T01:48:57;23.70;;;11.20;;
76761;SDS011;65705;51.032;13.790;2024-01-06T01:51:32;21.58;;;10.82;;
76761;SDS011;65705;51.032;13.790;2024-01-06T01:54:01;24.08;;;10.48;;
76761;SDS011;65705;51.032;13.790;2024-01-06T01:56:29;26.02;;;11.18;;
76761;SDS011;65705;51.032;13.790;2024-01-06T01:59:00;23.90;;;10.32;;
76761;SDS011;65705;51.032;13.790;2024-01-06T02:01:28;26.50;;;10.50;;
76761;SDS011;65705;51.032;13.790;2024-01-06T02:03:54;24.48;;;11.23;;
76761;SDS011;65705;51.032;13.790;2024-01-06T02:06:20;24.38;;;11.15;;
76761;SDS011;65705;51.032;13.790;2024-01-06T02:08:46;23.73;;;10.63;;
76761;SDS011;65705;51.032;13.790;2024-01-06T02:11:12;25.35;;;11.27;;
76761;SDS011;65705;51.032;13.790;2024-01-06T02:13:37;24.27;;;10.70;;
76761;SDS011;65705;51.032;13.790;2024-01-06T02:16:03;24.92;;;11.10;;
76761;SDS011;65705;51.032;13.790;2024-01-06T02:18:30;23.15;;;11.02;;
76761;SDS011;65705;51.032;13.790;2024-01-06T02:20:59;25.65;;;10.90;;
76761;SDS011;65705;51.032;13.790;2024-01-06T02:23:26;24.92;;;9.98;;
76761;SDS011;65705;51.032;13.790;2024-01-06T02:25:52;25.75;;;11.57;;
76761;SDS011;65705;51.032;13.790;2024-01-06T02:28:18;20.63;;;10.10;;
76761;SDS011;65705;51.032;13.790;2024-01-06T02:30:44;23.95;;;10.60;;
76761;SDS011;65705;51.032;13.790;2024-01-06T02:33:09;24.25;;;10.80;;
76761;SDS011;65705;51.032;13.790;2024-01-06T02:35:35;26.00;;;11.13;;
76761;SDS011;65705;51.032;13.790;2024-01-06T02:38:01;26.67;;;11.27;;
76761;SDS011;65705;51.032;13.790;2024-01-06T02:40:27;27.10;;;10.90;;
76761;SDS011;65705;51.032;13.790;2024-01-06T02:42:53;20.80;;;9.45;;
76761;SDS011;65705;51.032;13.790;2024-01-06T02:45:18;22.83;;;9.82;;
76761;SDS011;65705;51.032;13.790;2024-01-06T02:47:44;22.77;;;10.93;;
76761;SDS011;65705;51.032;13.790;2024-01-06T02:50:10;23.88;;;10.95;;
76761;SDS011;65705;51.032;13.790;2024-01-06T02:52:36;22.60;;;10.23;;
76761;SDS011;65705;51.032;13.790;2024-01-06T02:55:01;22.75;;;10.82;;
76761;SDS011;65705;51.032;13.790;2024-01-06T02:57:28;25.70;;;10.23;;
76761;SDS011;65705;51.032;13.790;2024-01-06T02:59:55;23.05;;;11.52;;
76761;SDS011;65705;51.032;13.790;2024-01-06T03:02:20;25.33;;;10.65;;
76761;SDS011;65705;51.032;13.790;2024-01-06T03:04:46;22.52;;;10.27;;
76761;SDS011;65705;51.032;13.790;2024-01-06T03:07:12;23.73;;;10.10;;
76761;SDS011;65705;51.032;13.790;2024-01-06T03:09:38;21.08;;;9.95;;
76761;SDS011;65705;51.032;13.790;2024-01-06T03:12:06;20.60;;;9.88;;
76761;SDS011;65705;51.032;13.790;2024-01-06T03:14:36;24.63;;;11.38;;
76761;SDS011;65705;51.032;13.790;2024-01-06T03:17:01;23.48;;;10.43;;
76761;SDS011;65705;51.032;13.790;2024-01-06T03:19:28;28.83;;;11.13;;
76761;SDS011;65705;51.032;13.790;2024-01-06T03:21:54;26.85;;;11.32;;
76761;SDS011;65705;51.032;13.790;2024-01-06T03:24:23;21.67;;;10.32;;
76761;SDS011;65705;51.032;13.790;2024-01-06T03:26:50;25.33;;;10.85;;
76761;SDS011;65705;51.032;13.790;2024-01-06T03:29:15;26.60;;;10.80;;
76761;SDS011;65705;51.032;13.790;2024-01-06T03:31:41;22.45;;;10.10;;
76761;SDS011;65705;51.032;13.790;2024-01-06T03:34:08;24.38;;;10.68;;
76761;SDS011;65705;51.032;13.790;2024-01-06T03:36:34;21.42;;;9.35;;
76761;SDS011;65705;51.032;13.790;2024-01-06T03:39:00;21.67;;;9.90;;
76761;SDS011;65705;51.032;13.790;2024-01-06T03:41:25;23.52;;;10.82;;
76761;SDS011;65705;51.032;13.790;2024-01-06T03:43:51;23.17;;;10.70;;
76761;SDS011;65705;51.032;13.790;2024-01-06T03:46:17;21.77;;;9.75;;
76761;SDS011;65705;51.032;13.790;2024-01-06T03:48:42;20.90;;;9.27;;
76761;SDS011;65705;51.032;13.790;2024-01-06T03:51:09;23.30;;;10.80;;
76761;SDS011;65705;51.032;13.790;2024-01-06T03:53:35;24.77;;;9.43;;
76761;SDS011;65705;51.032;13.790;2024-01-06T03:56:02;24.88;;;10.63;;
76761;SDS011;65705;51.032;13.790;2024-01-06T03:58:29;23.58;;;10.57;;
76761;SDS011;65705;51.032;13.790;2024-01-06T04:00:54;23.25;;;10.50;;
76761;SDS011;65705;51.032;13.790;2024-01-06T04:03:20;24.27;;;10.48;;
76761;SDS011;65705;51.032;13.790;2024-01-06T04:05:46;20.35;;;9.38;;
76761;SDS011;65705;51.032;13.790;2024-01-06T04:08:12;23.02;;;8.75;;
76761;SDS011;65705;51.032;13.790;2024-01-06T04:10:37;19.88;;;9.20;;
76761;SDS011;65705;51.032;13.790;2024-01-06T04:13:04;19.77;;;9.60;;
76761;SDS011;65705;51.032;13.790;2024-01-06T04:15:29;26.60;;;10.27;;
76761;SDS011;65705;51.032;13.790;2024-01-06T04:17:55;24.08;;;9.88;;
76761;SDS011;65705;51.032;13.790;2024-01-06T04:20:21;20.15;;;8.82;;
76761;SDS011;65705;51.032;13.790;2024-01-06T04:22:46;22.80;;;10.35;;
76761;SDS011;65705;51.032;13.790;2024-01-06T04:25:12;19.08;;;8.90;;
76761;SDS011;65705;51.032;13.790;2024-01-06T04:27:38;21.10;;;9.48;;
76761;SDS011;65705;51.032;13.790;2024-01-06T04:30:04;20.83;;;8.95;;
76761;SDS011;65705;51.032;13.790;2024-01-06T04:32:30;18.33;;;9.05;;
76761;SDS011;65705;51.032;13.790;2024-01-06T04:34:55;22.52;;;8.80;;
76761;SDS011;65705;51.032;13.790;2024-01-06T04:37:22;20.25;;;8.52;;
76761;SDS011;65705;51.032;13.790;2024-01-06T04:39:48;21.23;;;8.10;;
76761;SDS011;65705;51.032;13.790;2024-01-06T04:42:14;23.08;;;9.43;;
76761;SDS011;65705;51.032;13.790;2024-01-06T04:44:40;20.80;;;8.32;;
76761;SDS011;65705;51.032;13.790;2024-01-06T04:47:05;22.00;;;8.75;;
76761;SDS011;65705;51.032;13.790;2024-01-06T04:49:31;18.15;;;8.80;;
76761;SDS011;65705;51.032;13.790;2024-01-06T04:51:57;18.58;;;8.57;;
76761;SDS011;65705;51.032;13.790;2024-01-06T04:54:22;18.85;;;9.23;;
76761;SDS011;65705;51.032;13.790;2024-01-06T04:56:48;17.15;;;8.90;;
76761;SDS011;65705;51.032;13.790;2024-01-06T04:59:14;20.65;;;9.93;;
76761;SDS011;65705;51.032;13.790;2024-01-06T05:01:39;20.35;;;9.55;;
76761;SDS011;65705;51.032;13.790;2024-01-06T05:04:05;19.85;;;8.30;;
76761;SDS011;65705;51.032;13.790;2024-01-06T05:06:31;18.27;;;8.15;;
76761;SDS011;65705;51.032;13.790;2024-01-06T05:08:56;21.45;;;8.85;;
76761;SDS011;65705;51.032;13.790;2024-01-06T05:11:22;19.00;;;8.25;;
76761;SDS011;65705;51.032;13.790;2024-01-06T05:13:48;22.15;;;9.13;;
76761;SDS011;65705;51.032;13.790;2024-01-06T05:16:13;18.58;;;7.00;;
76761;SDS011;65705;51.032;13.790;2024-01-06T05:18:39;20.02;;;8.90;;
76761;SDS011;65705;51.032;13.790;2024-01-06T05:21:05;18.55;;;8.73;;
76761;SDS011;65705;51.032;13.790;2024-01-06T05:23:31;18.70;;;8.75;;
76761;SDS011;65705;51.032;13.790;2024-01-06T05:25:56;17.80;;;7.97;;
76761;SDS011;65705;51.032;13.790;2024-01-06T05:28:22;20.80;;;9.13;;
76761;SDS011;65705;51.032;13.790;2024-01-06T05:30:48;19.10;;;8.48;;
76761;SDS011;65705;51.032;13.790;2024-01-06T05:33:13;19.17;;;8.57;;
76761;SDS011;65705;51.032;13.790;2024-01-06T05:35:41;21.33;;;8.95;;
76761;SDS011;65705;51.032;13.790;2024-01-06T05:38:07;16.90;;;7.68;;
76761;SDS011;65705;51.032;13.790;2024-01-06T05:40:32;17.55;;;8.70;;
76761;SDS011;65705;51.032;13.790;2024-01-06T05:42:58;21.70;;;9.43;;
76761;SDS011;65705;51.032;13.790;2024-01-06T05:45:24;18.17;;;8.75;;
76761;SDS011;65705;51.032;13.790;2024-01-06T05:47:50;20.25;;;9.05;;
76761;SDS011;65705;51.032;13.790;2024-01-06T05:50:15;21.08;;;9.27;;
76761;SDS011;65705;51.032;13.790;2024-01-06T05:52:41;17.23;;;8.80;;
76761;SDS011;65705;51.032;13.790;2024-01-06T05:55:07;19.58;;;8.57;;
76761;SDS011;65705;51.032;13.790;2024-01-06T05:57:34;20.27;;;8.98;;
76761;SDS011;65705;51.032;13.790;2024-01-06T06:00:00;20.55;;;8.48;;
76761;SDS011;65705;51.032;13.790;2024-01-06T06:02:26;18.88;;;8.77;;
76761;SDS011;65705;51.032;13.790;2024-01-06T06:04:52;21.17;;;9.68;;
76761;SDS011;65705;51.032;13.790;2024-01-06T06:07:18;15.02;;;7.68;;
76761;SDS011;65705;51.032;13.790;2024-01-06T06:09:44;22.85;;;8.30;;
76761;SDS011;65705;51.032;13.790;2024-01-06T06:12:15;17.90;;;7.45;;
76761;SDS011;65705;51.032;13.790;2024-01-06T06:14:41;17.80;;;8.13;;
76761;SDS011;65705;51.032;13.790;2024-01-06T06:17:07;16.55;;;8.75;;
76761;SDS011;65705;51.032;13.790;2024-01-06T06:19:32;18.50;;;7.93;;
76761;SDS011;65705;51.032;13.790;2024-01-06T06:21:58;17.38;;;7.70;;
76761;SDS011;65705;51.032;13.790;2024-01-06T06:24:23;20.30;;;8.68;;
76761;SDS011;65705;51.032;13.790;2024-01-06T06:26:49;17.77;;;8.50;;
76761;SDS011;65705;51.032;13.790;2024-01-06T06:29:15;19.75;;;9.35;;
76761;SDS011;65705;51.032;13.790;2024-01-06T06:31:41;20.23;;;8.50;;
76761;SDS011;65705;51.032;13.790;2024-01-06T06:34:08;17.63;;;7.97;;
76761;SDS011;65705;51.032;13.790;2024-01-06T06:36:35;21.33;;;8.77;;
76761;SDS011;65705;51.032;13.790;2024-01-06T06:39:00;21.58;;;8.23;;
76761;SDS011;65705;51.032;13.790;2024-01-06T06:41:26;23.15;;;9.82;;
76761;SDS011;65705;51.032;13.790;2024-01-06T06:43:52;19.20;;;9.18;;
76761;SDS011;65705;51.032;13.790;2024-01-06T06:46:18;23.85;;;9.57;;
76761;SDS011;65705;51.032;13.790;2024-01-06T06:48:43;23.95;;;9.38;;
76761;SDS011;65705;51.032;13.790;2024-01-06T06:51:09;23.30;;;9.43;;
76761;SDS011;65705;51.032;13.790;2024-01-06T06:53:36;23.70;;;10.50;;
76761;SDS011;65705;51.032;13.790;2024-01-06T06:56:01;20.35;;;10.07;;
76761;SDS011;65705;51.032;13.790;2024-01-06T06:58:27;20.67;;;9.40;;
76761;SDS011;65705;51.032;13.790;2024-01-06T07:00:53;26.88;;;11.02;;
76761;SDS011;65705;51.032;13.790;2024-01-06T07:03:19;24.50;;;11.57;;
76761;SDS011;65705;51.032;13.790;2024-01-06T07:05:45;24.70;;;10.05;;
76761;SDS011;65705;51.032;13.790;2024-01-06T07:08:11;21.70;;;9.45;;
76761;SDS011;65705;51.032;13.790;2024-01-06T07:10:38;24.00;;;9.93;;
76761;SDS011;65705;51.032;13.790;2024-01-06T07:13:04;23.83;;;9.75;;
76761;SDS011;65705;51.032;13.790;2024-01-06T07:15:30;22.75;;;9.98;;
76761;SDS011;65705;51.032;13.790;2024-01-06T07:17:56;22.52;;;9.20;;
76761;SDS011;65705;51.032;13.790;2024-01-06T07:20:22;21.75;;;9.07;;
76761;SDS011;65705;51.032;13.790;2024-01-06T07:22:47;24.40;;;9.13;;
76761;SDS011;65705;51.032;13.790;2024-01-06T07:25:13;25.17;;;9.80;;
76761;SDS011;65705;51.032;13.790;2024-01-06T07:27:39;24.58;;;9.35;;
76761;SDS011;65705;51.032;13.790;2024-01-06T07:30:05;23.42;;;9.65;;
76761;SDS011;65705;51.032;13.790;2024-01-06T07:32:33;22.02;;;9.45;;
76761;SDS011;65705;51.032;13.790;2024-01-06T07:34:59;22.70;;;9.85;;
76761;SDS011;65705;51.032;13.790;2024-01-06T07:37:25;23.05;;;9.85;;
76761;SDS011;65705;51.032;13.790;2024-01-06T07:39:51;26.00;;;9.77;;
76761;SDS011;65705;51.032;13.790;2024-01-06T07:42:17;26.20;;;9.88;;
76761;SDS011;65705;51.032;13.790;2024-01-06T07:44:43;29.58;;;11.05;;
76761;SDS011;65705;51.032;13.790;2024-01-06T07:47:09;25.35;;;9.50;;
76761;SDS011;65705;51.032;13.790;2024-01-06T07:49:35;23.20;;;10.35;;
76761;SDS011;65705;51.032;13.790;2024-01-06T07:52:01;25.33;;;10.40;;
76761;SDS011;65705;51.032;13.790;2024-01-06T07:54:27;26.77;;;11.00;;
76761;SDS011;65705;51.032;13.790;2024-01-06T07:56:53;27.85;;;10.95;;
76761;SDS011;65705;51.032;13.790;2024-01-06T07:59:19;37.42;;;12.20;;
76761;SDS011;65705;51.032;13.790;2024-01-06T08:01:44;26.77;;;10.60;;
76761;SDS011;65705;51.032;13.790;2024-01-06T08:04:10;23.30;;;9.98;;
76761;SDS011;65705;51.032;13.790;2024-01-06T08:06:36;35.50;;;11.63;;
76761;SDS011;65705;51.032;13.790;2024-01-06T08:09:02;27.30;;;11.95;;
76761;SDS011;65705;51.032;13.790;2024-01-06T08:11:28;23.38;;;9.95;;
76761;SDS011;65705;51.032;13.790;2024-01-06T08:13:54;24.67;;;11.10;;
76761;SDS011;65705;51.032;13.790;2024-01-06T08:16:20;25.15;;;10.63;;
76761;SDS011;65705;51.032;13.790;2024-01-06T08:18:46;31.73;;;11.57;;
76761;SDS011;65705;51.032;13.790;2024-01-06T08:21:12;30.85;;;12.30;;
76761;SDS011;65705;51.032;13.790;2024-01-06T08:23:37;29.98;;;11.85;;
76761;SDS011;65705;51.032;13.790;2024-01-06T08:26:03;27.48;;;11.70;;
76761;SDS011;65705;51.032;13.790;2024-01-06T08:28:30;26.92;;;10.80;;
76761;SDS011;65705;51.032;13.790;2024-01-06T08:30:56;28.95;;;12.18;;
76761;SDS011;65705;51.032;13.790;2024-01-06T08:33:22;28.48;;;11.38;;
76761;SDS011;65705;51.032;13.790;2024-01-06T08:35:47;25.40;;;10.57;;
76761;SDS011;65705;51.032;13.790;2024-01-06T08:38:13;24.48;;;10.40;;
76761;SDS011;65705;51.032;13.790;2024-01-06T08:40:39;27.77;;;11.00;;
76761;SDS011;65705;51.032;13.790;2024-01-06T08:43:05;22.98;;;9.85;;
76761;SDS011;65705;51.032;13.790;2024-01-06T08:45:31;28.65;;;13.27;;
76761;SDS011;65705;51.032;13.790;2024-01-06T08:47:57;35.45;;;14.25;;
76761;SDS011;65705;51.032;13.790;2024-01-06T08:50:22;46.92;;;18.50;;
76761;SDS011;65705;51.032;13.790;2024-01-06T08:52:48;29.02;;;13.52;;
76761;SDS011;65705;51.032;13.790;2024-01-06T08:55:14;28.08;;;12.43;;
76761;SDS011;65705;51.032;13.790;2024-01-06T08:57:39;29.65;;;11.93;;
76761;SDS011;65705;51.032;13.790;2024-01-06T09:00:05;30.35;;;13.30;;
76761;SDS011;65705;51.032;13.790;2024-01-06T09:02:31;25.45;;;10.43;;
76761;SDS011;65705;51.032;13.790;2024-01-06T09:04:57;24.52;;;10.98;;
76761;SDS011;65705;51.032;13.790;2024-01-06T09:07:23;25.08;;;11.25;;
76761;SDS011;65705;51.032;13.790;2024-01-06T09:09:48;28.15;;;11.48;;
76761;SDS011;65705;51.032;13.790;2024-01-06T09:12:14;26.02;;;12.05;;
76761;SDS011;65705;51.032;13.790;2024-01-06T09:14:39;29.55;;;11.45;;
76761;SDS011;65705;51.032;13.790;2024-01-06T09:17:06;27.10;;;12.23;;
76761;SDS011;65705;51.032;13.790;2024-01-06T09:19:31;27.23;;;12.02;;
76761;SDS011;65705;51.032;13.790;2024-01-06T09:21:57;30.70;;;12.65;;
76761;SDS011;65705;51.032;13.790;2024-01-06T09:24:23;31.23;;;13.00;;
76761;SDS011;65705;51.032;13.790;2024-01-06T09:26:48;32.60;;;13.60;;
76761;SDS011;65705;51.032;13.790;2024-01-06T09:29:17;30.10;;;13.40;;
76761;SDS011;65705;51.032;13.790;2024-01-06T09:31:43;30.13;;;12.77;;
76761;SDS011;65705;51.032;13.790;2024-01-06T09:34:09;36.22;;;15.27;;
76761;SDS011;65705;51.032;13.790;2024-01-06T09:36:35;36.33;;;14.10;;
76761;SDS011;65705;51.032;13.790;2024-01-06T09:39:01;31.35;;;12.95;;
76761;SDS011;65705;51.032;13.790;2024-01-06T09:41:27;30.17;;;13.82;;
76761;SDS011;65705;51.032;13.790;2024-01-06T09:43:52;27.23;;;12.60;;
76761;SDS011;65705;51.032;13.790;2024-01-06T09:46:25;28.55;;;12.52;;
76761;SDS011;65705;51.032;13.790;2024-01-06T09:48:57;27.05;;;12.00;;
76761;SDS011;65705;51.032;13.790;2024-01-06T09:51:24;29.85;;;11.68;;
76761;SDS011;65705;51.032;13.790;2024-01-06T09:54:01;29.05;;;11.38;;
76761;SDS011;65705;51.032;13.790;2024-01-06T09:56:32;25.83;;;12.30;;
76761;SDS011;65705;51.032;13.790;2024-01-06T09:58:59;27.42;;;12.80;;
76761;SDS011;65705;51.032;13.790;2024-01-06T10:01:28;32.92;;;12.52;;
76761;SDS011;65705;51.032;13.790;2024-01-06T10:03:54;29.73;;;11.95;;
76761;SDS011;65705;51.032;13.790;2024-01-06T10:06:19;27.23;;;12.43;;
76761;SDS011;65705;51.032;13.790;2024-01-06T10:08:49;27.08;;;13.13;;
76761;SDS011;65705;51.032;13.790;2024-01-06T10:13:42;25.08;;;11.20;;
76761;SDS011;65705;51.032;13.790;2024-01-06T10:16:07;27.23;;;12.82;;
76761;SDS011;65705;51.032;13.790;2024-01-06T10:18:34;26.48;;;11.68;;
76761;SDS011;65705;51.032;13.790;2024-01-06T10:21:04;27.48;;;12.05;;
76761;SDS011;65705;51.032;13.790;2024-01-06T10:23:33;23.73;;;11.25;;
76761;SDS011;65705;51.032;13.790;2024-01-06T10:25:59;34.75;;;15.18;;
76761;SDS011;65705;51.032;13.790;2024-01-06T10:28:25;32.88;;;15.80;;
76761;SDS011;65705;51.032;13.790;2024-01-06T10:30:51;68.45;;;29.88;;
76761;SDS011;65705;51.032;13.790;2024-01-06T10:33:19;28.65;;;12.82;;
76761;SDS011;65705;51.032;13.790;2024-01-06T10:35:46;29.42;;;12.63;;
76761;SDS011;65705;51.032;13.790;2024-01-06T10:38:12;29.05;;;12.52;;
76761;SDS011;65705;51.032;13.790;2024-01-06T10:40:39;24.20;;;11.23;;
76761;SDS011;65705;51.032;13.790;2024-01-06T10:43:04;26.35;;;12.18;;
76761;SDS011;65705;51.032;13.790;2024-01-06T10:45:31;26.83;;;11.50;;
76761;SDS011;65705;51.032;13.790;2024-01-06T10:47:56;27.17;;;11.82;;
76761;SDS011;65705;51.032;13.790;2024-01-06T10:50:23;27.60;;;11.73;;
76761;SDS011;65705;51.032;13.790;2024-01-06T10:52:49;28.52;;;12.68;;
76761;SDS011;65705;51.032;13.790;2024-01-06T10:55:17;25.60;;;11.95;;
76761;SDS011;65705;51.032;13.790;2024-01-06T10:57:45;25.25;;;12.20;;
76761;SDS011;65705;51.032;13.790;2024-01-06T11:00:12;25.58;;;11.57;;
76761;SDS011;65705;51.032;13.790;2024-01-06T11:02:41;28.45;;;12.38;;
76761;SDS011;65705;51.032;13.790;2024-01-06T11:05:08;26.23;;;12.35;;
76761;SDS011;65705;51.032;13.790;2024-01-06T11:07:35;30.23;;;12.40;;
76761;SDS011;65705;51.032;13.790;2024-01-06T11:10:23;42.80;;;21.35;;
76761;SDS011;65705;51.032;13.790;2024-01-06T11:13:05;40.63;;;21.27;;
76761;SDS011;65705;51.032;13.790;2024-01-06T11:15:47;46.67;;;22.38;;
76761;SDS011;65705;51.032;13.790;2024-01-06T11:23:42;23.35;;;10.85;;
76761;SDS011;65705;51.032;13.790;2024-01-06T11:26:09;24.55;;;11.65;;
76761;SDS011;65705;51.032;13.790;2024-01-06T11:28:52;25.33;;;11.23;;
76761;SDS011;65705;51.032;13.790;2024-01-06T11:31:20;23.80;;;11.68;;
76761;SDS011;65705;51.032;13.790;2024-01-06T11:33:46;22.63;;;9.80;;
76761;SDS011;65705;51.032;13.790;2024-01-06T11:36:16;20.55;;;10.45;;
76761;SDS011;65705;51.032;13.790;2024-01-06T11:38:42;20.88;;;10.40;;
76761;SDS011;65705;51.032;13.790;2024-01-06T11:41:14;21.42;;;10.73;;
76761;SDS011;65705;51.032;13.790;2024-01-06T11:44:20;21.30;;;10.05;;
76761;SDS011;65705;51.032;13.790;2024-01-06T11:49:13;68.70;;;30.85;;
76761;SDS011;65705;51.032;13.790;2024-01-06T11:51:41;49.53;;;24.30;;
76761;SDS011;65705;51.032;13.790;2024-01-06T11:54:07;20.77;;;10.20;;
76761;SDS011;65705;51.032;13.790;2024-01-06T11:56:35;19.55;;;10.40;;
76761;SDS011;65705;51.032;13.790;2024-01-06T11:59:00;20.65;;;9.88;;
76761;SDS011;65705;51.032;13.790;2024-01-06T12:01:26;21.98;;;9.43;;
76761;SDS011;65705;51.032;13.790;2024-01-06T12:03:55;21.05;;;9.05;;
76761;SDS011;65705;51.032;13.790;2024-01-06T12:06:21;23.08;;;10.40;;
76761;SDS011;65705;51.032;13.790;2024-01-06T12:08:47;25.00;;;11.38;;
76761;SDS011;65705;51.032;13.790;2024-01-06T12:11:13;26.58;;;10.90;;
76761;SDS011;65705;51.032;13.790;2024-01-06T12:13:44;22.85;;;11.65;;
76761;SDS011;65705;51.032;13.790;2024-01-06T12:16:10;23.23;;;10.85;;
76761;SDS011;65705;51.032;13.790;2024-01-06T12:18:35;23.70;;;11.02;;
76761;SDS011;65705;51.032;13.790;2024-01-06T12:21:01;24.55;;;10.73;;
76761;SDS011;65705;51.032;13.790;2024-01-06T12:23:28;21.02;;;10.40;;
76761;SDS011;65705;51.032;13.790;2024-01-06T12:25:54;22.95;;;10.82;;
76761;SDS011;65705;51.032;13.790;2024-01-06T12:28:20;23.90;;;11.35;;
76761;SDS011;65705;51.032;13.790;2024-01-06T12:30:46;22.23;;;10.25;;
76761;SDS011;65705;51.032;13.790;2024-01-06T12:33:12;23.10;;;10.23;;
76761;SDS011;65705;51.032;13.790;2024-01-06T12:35:39;23.48;;;11.07;;
76761;SDS011;65705;51.032;13.790;2024-01-06T12:38:04;21.60;;;10.65;;
76761;SDS011;65705;51.032;13.790;2024-01-06T12:40:34;25.13;;;11.52;;
76761;SDS011;65705;51.032;13.790;2024-01-06T12:43:02;23.00;;;10.60;;
76761;SDS011;65705;51.032;13.790;2024-01-06T12:45:28;24.25;;;11.57;;
76761;SDS011;65705;51.032;13.790;2024-01-06T12:47:54;28.83;;;13.20;;
76761;SDS011;65705;51.032;13.790;2024-01-06T12:50:20;22.95;;;11.05;;
76761;SDS011;65705;51.032;13.790;2024-01-06T12:52:45;28.15;;;13.00;;
76761;SDS011;65705;51.032;13.790;2024-01-06T12:55:11;28.00;;;12.50;;
76761;SDS011;65705;51.032;13.790;2024-01-06T12:57:37;29.60;;;13.98;;
76761;SDS011;65705;51.032;13.790;2024-01-06T13:00:03;30.10;;;12.95;;
76761;SDS011;65705;51.032;13.790;2024-01-06T13:02:31;32.17;;;13.18;;
76761;SDS011;65705;51.032;13.790;2024-01-06T13:04:57;30.88;;;12.88;;
76761;SDS011;65705;51.032;13.790;2024-01-06T13:07:23;26.17;;;12.38;;
76761;SDS011;65705;51.032;13.790;2024-01-06T13:09:49;29.40;;;13.10;;
76761;SDS011;65705;51.032;13.790;2024-01-06T13:12:15;30.00;;;13.05;;
76761;SDS011;65705;51.032;13.790;2024-01-06T13:14:43;30.38;;;13.00;;
76761;SDS011;65705;51.032;13.790;2024-01-06T13:17:12;24.17;;;11.85;;
76761;SDS011;65705;51.032;13.790;2024-01-06T13:19:40;22.33;;;10.98;;
76761;SDS011;65705;51.032;13.790;2024-01-06T13:22:05;19.90;;;8.85;;
76761;SDS011;65705;51.032;13.790;2024-01-06T13:24:31;19.27;;;9.35;;
76761;SDS011;65705;51.032;13.790;2024-01-06T13:26:57;17.90;;;9.43;;
76761;SDS011;65705;51.032;13.790;2024-01-06T13:29:24;19.17;;;8.90;;
76761;SDS011;65705;51.032;13.790;2024-01-06T13:31:50;19.25;;;9.00;;
76761;SDS011;65705;51.032;13.790;2024-01-06T13:34:15;18.67;;;9.05;;
76761;SDS011;65705;51.032;13.790;2024-01-06T13:36:41;18.02;;;9.15;;
76761;SDS011;65705;51.032;13.790;2024-01-06T13:39:07;22.33;;;10.20;;
76761;SDS011;65705;51.032;13.790;2024-01-06T13:41:32;21.30;;;9.80;;
76761;SDS011;65705;51.032;13.790;2024-01-06T13:43:58;19.55;;;10.05;;
76761;SDS011;65705;51.032;13.790;2024-01-06T13:46:24;22.50;;;10.32;;
76761;SDS011;65705;51.032;13.790;2024-01-06T13:48:50;20.40;;;10.43;;
76761;SDS011;65705;51.032;13.790;2024-01-06T13:51:15;19.10;;;9.68;;
76761;SDS011;65705;51.032;13.790;2024-01-06T13:53:41;23.23;;;10.88;;
76761;SDS011;65705;51.032;13.790;2024-01-06T13:56:07;26.88;;;11.50;;
76761;SDS011;65705;51.032;13.790;2024-01-06T13:58:33;22.95;;;11.57;;
76761;SDS011;65705;51.032;13.790;2024-01-06T14:01:01;26.48;;;11.48;;
76761;SDS011;65705;51.032;13.790;2024-01-06T14:03:27;27.33;;;12.85;;
76761;SDS011;65705;51.032;13.790;2024-01-06T14:05:53;27.88;;;12.90;;
76761;SDS011;65705;51.032;13.790;2024-01-06T14:08:19;28.52;;;12.93;;
76761;SDS011;65705;51.032;13.790;2024-01-06T14:10:45;33.08;;;13.70;;
76761;SDS011;65705;51.032;13.790;2024-01-06T14:13:11;33.83;;;14.48;;
76761;SDS011;65705;51.032;13.790;2024-01-06T14:15:36;32.40;;;13.68;;
76761;SDS011;65705;51.032;13.790;2024-01-06T14:18:02;30.63;;;12.63;;
76761;SDS011;65705;51.032;13.790;2024-01-06T14:20:29;29.48;;;13.00;;